LYBE METAR and TAF weather

Enter ICAO airport designator

Example: see airport list

Station Type Date Time Source
LYBE METAR 2016/05/27 19:30 UTC NOAA

LYBE 271930Z 11003KT CAVOK 22/14 Q1016 NOSIG

Station Type Date Time Source
LYBE Decoded METAR 2016/05/27 19:30 UTC NOAA

Beograd / Surcin, Serbia and Montenegro (LYBE) 44-49N 020-17E 99M
May 27, 2016 - 03:30 PM EDT / 2016.05.27 1930 UTC
Wind: from the ESE (110 degrees) at 3 MPH (3 KT):0
Visibility: greater than 7 mile(s):0
Temperature: 71 F (22 C)
Dew Point: 57 F (14 C)
Relative Humidity: 60%
Pressure (altimeter): 30.00 in. Hg (1016 hPa)
ob: LYBE 271930Z 11003KT CAVOK 22/14 Q1016 NOSIG
cycle: 19

Station Type Date Time Source
LYBE TAF 2016/05/27 18:21 UTC NOAA

TAF LYBE 271700Z 2718/2818 23003KT CAVOK TX29/2812Z TN14/2803Z